KSUU

Travis AFB Airport

Fairfield, California, USA
TAF AMD KSUU 251509Z 2515/2617 23010G15KT 9999 SCT200 QNH2995INS TEMPO 2515/2519 23015G25KT BECMG 2600/2601 23012G18KT 9999 FEW180 QNH2997INS BECMG 2605/2606 23015G25KT 9999 FEW200 QNH2998INS BECMG 2614/2615 23012KT 9999 FEW180 QNH2999INS TX23/2523Z TN11/2515Z
Issued Valid From Valid To
Apr-25 @ 15:09 UTC
(3 hours ago)
Apr-25 @ 15:00 UTC
(3 hours ago)
Apr-26 @ 17:00 UTC
(in 23 hours)
Apr-25 @ 15:00 to Apr-26 @ 00:00
TAF AMD KSUU 251509Z 2515/2617 23010G15KT 9999 SCT200 QNH2995INS
Wind Visibility Clouds Readings
230° at 10 knots
 Gusting to 15 knots
Greater than 6 miles
  • Scattered at 20,000' AGL
Altimeter 29.94" Hg
Pressure 1014 hPa
Temporary Apr-25 @ 15:00 to Apr-25 @ 19:00
TEMPO 2515/2519 23015G25KT
Wind
230° at 15 knots
 Gusting to 25 knots
Becoming Apr-26 @ 00:00 to Apr-26 @ 05:00
BECMG 2600/2601 23012G18KT 9999 FEW180 QNH2997INS
Wind Visibility Clouds Readings
230° at 12 knots
 Gusting to 18 knots
Greater than 6 miles
  • Few at 18,000' AGL
Altimeter 29.97" Hg
Pressure 1015 hPa
Becoming Apr-26 @ 05:00 to Apr-26 @ 14:00
BECMG 2605/2606 23015G25KT 9999 FEW200 QNH2998INS
Wind Visibility Clouds Readings
230° at 15 knots
 Gusting to 25 knots
Greater than 6 miles
  • Few at 20,000' AGL
Altimeter 29.97" Hg
Pressure 1015 hPa
Becoming Apr-26 @ 14:00 to Apr-26 @ 17:00
BECMG 2614/2615 23012KT 9999 FEW180 QNH2999INS TX23/2523Z TN11/2515Z
Wind Visibility Clouds Readings
230° at 12 knots Greater than 6 miles
  • Few at 18,000' AGL
Altimeter 30" Hg
Pressure 1016 hPa
TAF AMD KSUU 251509Z 2515/2617 23010G15KT 9999 SCT200 QNH2995INS TEMPO 2515/2519 23015G25KT BECMG 2600/2601 23012G18KT 9999 FEW180 QNH2997INS BECMG 2605/2606 23015G25KT 9999 FEW200 QNH2998INS BECMG 2614/2615 23012KT 9999 FEW180 QNH2999INS TX23/2523Z TN11/2515Z
Issued Apr-25 @ 15:09 UTC
(3 hours ago)
Valid From Apr-25 @ 15:00 UTC
(3 hours ago)
Valid To Apr-26 @ 17:00 UTC
(in 23 hours)
Apr-25 @ 15:00 - Apr-26 @ 00:00
Wind Visibility
230° at 10 knots
 Gusting to 15 knots
Greater than 6 miles
Clouds
  • Scattered at 20,000' AGL
Temporary Apr-25 @ 15:00 - Apr-25 @ 19:00
Wind
230° at 15 knots
 Gusting to 25 knots
Becoming Apr-26 @ 00:00 - Apr-26 @ 05:00
Wind Visibility
230° at 12 knots
 Gusting to 18 knots
Greater than 6 miles
Clouds
  • Few at 18,000' AGL
Becoming Apr-26 @ 05:00 - Apr-26 @ 14:00
Wind Visibility
230° at 15 knots
 Gusting to 25 knots
Greater than 6 miles
Clouds
  • Few at 20,000' AGL
Becoming Apr-26 @ 14:00 - Apr-26 @ 17:00
Wind Visibility
230° at 12 knots Greater than 6 miles
Clouds
  • Few at 18,000' AGL